< < Back
Terminal Aerodrome Forecast


Current Version              Previous Versions:   1  2  3  4  5  6  7  8  9  

Terminal Aerodrome Forecast

309
FTAK31 PAJN 290419 AAA
TAFAGS
TAF AMD
PAGS 290419Z 2904/2924 21007KT P6SM -SHRA SCT025 OVC040
     FM291000 14008KT P6SM -SHRA SCT025 OVC030
     FM291900 15011KT P6SM -SHRA SCT025 OVC040
      AMD LTD TO CLD VIS AND WIND=

Latest METAR

426
SAUS70 KWBC 291000 RRF
MTRAGS
METAR KAGS 290953Z AUTO 00000KT 5SM BR CLR 18/17 A2995 RMK AO2 SLP139
T01780172


USA.gov is the U.S. government's official web portal to all federal, state and local government web resources and services.